sensor_id;sensor_type;location;lat;lon;timestamp;pressure;altitude;pressure_sealevel;temperature;humidity
76011;BME280;64701;43.536;1.478;2023-05-10T00:00:49;100070.47;;;13.63;92.11
76011;BME280;64701;43.536;1.478;2023-05-10T00:03:15;100067.16;;;13.61;92.43
76011;BME280;64701;43.536;1.478;2023-05-10T00:05:41;100067.97;;;13.55;92.51
76011;BME280;64701;43.536;1.478;2023-05-10T00:08:06;100072.44;;;13.54;92.91
76011;BME280;64701;43.536;1.478;2023-05-10T00:10:31;100063.19;;;13.43;92.95
76011;BME280;64701;43.536;1.478;2023-05-10T00:12:56;100063.00;;;13.45;93.05
76011;BME280;64701;43.536;1.478;2023-05-10T00:15:22;100070.31;;;13.36;93.27
76011;BME280;64701;43.536;1.478;2023-05-10T00:17:47;100069.13;;;13.39;92.92
76011;BME280;64701;43.536;1.478;2023-05-10T00:20:12;100071.31;;;13.35;92.80
76011;BME280;64701;43.536;1.478;2023-05-10T00:22:38;100068.66;;;13.35;92.80
76011;BME280;64701;43.536;1.478;2023-05-10T00:25:03;100072.09;;;13.29;92.54
76011;BME280;64701;43.536;1.478;2023-05-10T00:27:28;100081.72;;;13.30;92.58
76011;BME280;64701;43.536;1.478;2023-05-10T00:29:54;100080.34;;;13.34;91.85
76011;BME280;64701;43.536;1.478;2023-05-10T00:32:19;100081.72;;;13.30;91.99
76011;BME280;64701;43.536;1.478;2023-05-10T00:34:45;100081.28;;;13.20;92.12
76011;BME280;64701;43.536;1.478;2023-05-10T00:37:10;100074.31;;;13.19;92.67
76011;BME280;64701;43.536;1.478;2023-05-10T00:39:36;100070.22;;;13.17;92.67
76011;BME280;64701;43.536;1.478;2023-05-10T00:42:01;100071.22;;;13.16;92.91
76011;BME280;64701;43.536;1.478;2023-05-10T00:44:26;100069.16;;;13.18;92.41
76011;BME280;64701;43.536;1.478;2023-05-10T00:46:52;100066.50;;;13.18;92.78
76011;BME280;64701;43.536;1.478;2023-05-10T00:49:17;100058.13;;;13.14;92.57
76011;BME280;64701;43.536;1.478;2023-05-10T00:51:43;100068.56;;;13.16;92.59
76011;BME280;64701;43.536;1.478;2023-05-10T00:54:13;100061.19;;;13.18;92.35
76011;BME280;64701;43.536;1.478;2023-05-10T00:56:39;100057.34;;;13.20;92.41
76011;BME280;64701;43.536;1.478;2023-05-10T00:59:05;100051.00;;;13.21;92.47
76011;BME280;64701;43.536;1.478;2023-05-10T01:01:30;100054.69;;;13.20;92.56
76011;BME280;64701;43.536;1.478;2023-05-10T01:03:56;100057.56;;;13.25;92.26
76011;BME280;64701;43.536;1.478;2023-05-10T01:06:22;100059.59;;;13.23;92.06
76011;BME280;64701;43.536;1.478;2023-05-10T01:08:47;100060.63;;;13.22;92.23
76011;BME280;64701;43.536;1.478;2023-05-10T01:11:12;100049.16;;;13.22;91.99
76011;BME280;64701;43.536;1.478;2023-05-10T01:13:38;100051.38;;;13.18;91.54
76011;BME280;64701;43.536;1.478;2023-05-10T01:16:06;100056.56;;;13.26;91.13
76011;BME280;64701;43.536;1.478;2023-05-10T01:18:35;100062.50;;;13.28;90.48
76011;BME280;64701;43.536;1.478;2023-05-10T01:21:36;100062.66;;;13.20;90.14
76011;BME280;64701;43.536;1.478;2023-05-10T01:29:44;100056.69;;;13.18;90.38
76011;BME280;64701;43.536;1.478;2023-05-10T01:34:44;100043.81;;;13.15;90.71
76011;BME280;64701;43.536;1.478;2023-05-10T01:37:11;100044.81;;;13.14;90.29
76011;BME280;64701;43.536;1.478;2023-05-10T01:42:06;100037.47;;;13.16;90.22
76011;BME280;64701;43.536;1.478;2023-05-10T01:44:34;100039.06;;;13.11;89.68
76011;BME280;64701;43.536;1.478;2023-05-10T01:47:03;100039.25;;;13.09;89.98
76011;BME280;64701;43.536;1.478;2023-05-10T01:49:31;100042.91;;;13.08;89.88
76011;BME280;64701;43.536;1.478;2023-05-10T01:51:59;100040.25;;;13.08;89.85
76011;BME280;64701;43.536;1.478;2023-05-10T01:54:25;100043.09;;;13.06;89.41
76011;BME280;64701;43.536;1.478;2023-05-10T01:57:06;100041.41;;;12.99;90.28
76011;BME280;64701;43.536;1.478;2023-05-10T01:59:34;100046.34;;;13.02;89.43
76011;BME280;64701;43.536;1.478;2023-05-10T02:02:05;100046.50;;;12.94;89.29
76011;BME280;64701;43.536;1.478;2023-05-10T02:04:31;100043.81;;;12.94;89.50
76011;BME280;64701;43.536;1.478;2023-05-10T02:06:57;100052.84;;;12.93;89.39
76011;BME280;64701;43.536;1.478;2023-05-10T02:09:23;100045.66;;;12.93;89.21
76011;BME280;64701;43.536;1.478;2023-05-10T02:11:50;100045.81;;;12.85;89.42
76011;BME280;64701;43.536;1.478;2023-05-10T02:14:15;100042.66;;;12.75;89.65
76011;BME280;64701;43.536;1.478;2023-05-10T02:16:41;100042.09;;;12.80;89.70
76011;BME280;64701;43.536;1.478;2023-05-10T02:19:09;100031.06;;;12.83;89.72
76011;BME280;64701;43.536;1.478;2023-05-10T02:21:35;100036.38;;;12.83;89.98
76011;BME280;64701;43.536;1.478;2023-05-10T02:24:01;100040.06;;;12.82;90.13
76011;BME280;64701;43.536;1.478;2023-05-10T02:26:27;100031.91;;;12.83;89.87
76011;BME280;64701;43.536;1.478;2023-05-10T02:28:53;100029.47;;;12.88;89.39
76011;BME280;64701;43.536;1.478;2023-05-10T02:31:19;100032.78;;;12.90;89.46
76011;BME280;64701;43.536;1.478;2023-05-10T02:33:45;100019.84;;;12.81;90.40
76011;BME280;64701;43.536;1.478;2023-05-10T02:36:11;100031.06;;;12.83;90.24
76011;BME280;64701;43.536;1.478;2023-05-10T02:38:37;100026.16;;;12.80;90.55
76011;BME280;64701;43.536;1.478;2023-05-10T02:41:03;100024.06;;;12.75;90.91
76011;BME280;64701;43.536;1.478;2023-05-10T02:43:30;100024.50;;;12.79;90.88
76011;BME280;64701;43.536;1.478;2023-05-10T02:45:57;100019.56;;;12.76;91.20
76011;BME280;64701;43.536;1.478;2023-05-10T02:48:22;100016.09;;;12.75;91.63
76011;BME280;64701;43.536;1.478;2023-05-10T02:50:47;100019.63;;;12.82;91.51
76011;BME280;64701;43.536;1.478;2023-05-10T02:53:18;100013.88;;;12.79;91.81
76011;BME280;64701;43.536;1.478;2023-05-10T02:55:45;100013.25;;;12.77;92.70
76011;BME280;64701;43.536;1.478;2023-05-10T02:58:14;100015.53;;;12.80;92.21
76011;BME280;64701;43.536;1.478;2023-05-10T03:00:39;100008.16;;;12.82;92.21
76011;BME280;64701;43.536;1.478;2023-05-10T03:03:04;100019.63;;;12.82;92.46
76011;BME280;64701;43.536;1.478;2023-05-10T03:05:30;100012.06;;;12.79;92.78
76011;BME280;64701;43.536;1.478;2023-05-10T03:07:55;100014.72;;;12.79;93.18
76011;BME280;64701;43.536;1.478;2023-05-10T03:10:22;100024.69;;;12.77;93.33
76011;BME280;64701;43.536;1.478;2023-05-10T03:18:11;100014.66;;;12.73;93.51
76011;BME280;64701;43.536;1.478;2023-05-10T03:20:47;100027.81;;;12.81;93.53
76011;BME280;64701;43.536;1.478;2023-05-10T03:23:20;100044.13;;;12.78;93.86
76011;BME280;64701;43.536;1.478;2023-05-10T03:25:46;100025.63;;;12.63;92.14
76011;BME280;64701;43.536;1.478;2023-05-10T03:28:12;100022.66;;;12.51;89.50
76011;BME280;64701;43.536;1.478;2023-05-10T03:30:39;100024.94;;;12.54;90.10
76011;BME280;64701;43.536;1.478;2023-05-10T03:33:05;100011.22;;;12.51;89.59
76011;BME280;64701;43.536;1.478;2023-05-10T03:35:33;100016.72;;;12.49;88.71
76011;BME280;64701;43.536;1.478;2023-05-10T03:37:59;100026.34;;;12.50;88.37
76011;BME280;64701;43.536;1.478;2023-05-10T03:40:25;100017.03;;;12.40;87.62
76011;BME280;64701;43.536;1.478;2023-05-10T03:42:51;100020.34;;;12.42;88.24
76011;BME280;64701;43.536;1.478;2023-05-10T03:45:16;100022.56;;;12.38;88.73
76011;BME280;64701;43.536;1.478;2023-05-10T03:47:41;100027.88;;;12.38;88.83
76011;BME280;64701;43.536;1.478;2023-05-10T03:50:07;100025.53;;;12.28;89.59
76011;BME280;64701;43.536;1.478;2023-05-10T03:52:32;100027.41;;;12.35;90.08
76011;BME280;64701;43.536;1.478;2023-05-10T03:54:57;100024.16;;;12.33;89.56
76011;BME280;64701;43.536;1.478;2023-05-10T03:57:23;100021.50;;;12.33;89.73
76011;BME280;64701;43.536;1.478;2023-05-10T03:59:48;100030.28;;;12.33;90.68
76011;BME280;64701;43.536;1.478;2023-05-10T04:02:13;100024.44;;;12.23;91.75
76011;BME280;64701;43.536;1.478;2023-05-10T04:04:39;100031.81;;;12.21;92.55
76011;BME280;64701;43.536;1.478;2023-05-10T04:07:04;100031.34;;;12.17;93.40
76011;BME280;64701;43.536;1.478;2023-05-10T04:09:29;100035.47;;;12.20;93.60
76011;BME280;64701;43.536;1.478;2023-05-10T04:11:54;100026.50;;;12.21;93.63
76011;BME280;64701;43.536;1.478;2023-05-10T04:14:20;100032.16;;;12.18;94.41
76011;BME280;64701;43.536;1.478;2023-05-10T04:16:45;100026.28;;;12.22;94.08
76011;BME280;64701;43.536;1.478;2023-05-10T04:19:10;100032.81;;;12.20;94.26
76011;BME280;64701;43.536;1.478;2023-05-10T04:21:36;100034.63;;;12.19;94.80
76011;BME280;64701;43.536;1.478;2023-05-10T04:24:01;100031.16;;;12.19;94.63
76011;BME280;64701;43.536;1.478;2023-05-10T04:26:26;100035.00;;;12.16;94.63
76011;BME280;64701;43.536;1.478;2023-05-10T04:28:52;100036.81;;;12.16;94.14
76011;BME280;64701;43.536;1.478;2023-05-10T04:31:17;100035.63;;;12.18;94.69
76011;BME280;64701;43.536;1.478;2023-05-10T04:33:42;100034.63;;;12.19;94.51
76011;BME280;64701;43.536;1.478;2023-05-10T04:36:07;100040.13;;;12.18;94.32
76011;BME280;64701;43.536;1.478;2023-05-10T04:38:33;100040.53;;;12.15;94.95
76011;BME280;64701;43.536;1.478;2023-05-10T04:41:08;100035.22;;;12.15;94.24
76011;BME280;64701;43.536;1.478;2023-05-10T04:43:33;100039.13;;;12.19;94.78
76011;BME280;64701;43.536;1.478;2023-05-10T04:45:59;100033.41;;;12.22;94.31
76011;BME280;64701;43.536;1.478;2023-05-10T04:48:24;100027.50;;;12.20;93.80
76011;BME280;64701;43.536;1.478;2023-05-10T04:50:49;100032.97;;;12.18;93.91
76011;BME280;64701;43.536;1.478;2023-05-10T04:53:15;100040.94;;;12.18;94.09
76011;BME280;64701;43.536;1.478;2023-05-10T04:55:40;100028.06;;;12.15;93.33
76011;BME280;64701;43.536;1.478;2023-05-10T04:58:05;100046.84;;;12.14;94.07
76011;BME280;64701;43.536;1.478;2023-05-10T05:00:30;100050.50;;;12.13;93.86
76011;BME280;64701;43.536;1.478;2023-05-10T05:02:56;100050.94;;;12.16;94.12
76011;BME280;64701;43.536;1.478;2023-05-10T05:05:21;100063.00;;;12.19;93.19
76011;BME280;64701;43.536;1.478;2023-05-10T05:07:46;100054.16;;;12.12;93.94
76011;BME280;64701;43.536;1.478;2023-05-10T05:10:12;100058.47;;;12.13;93.50
76011;BME280;64701;43.536;1.478;2023-05-10T05:12:37;100056.66;;;11.99;94.88
76011;BME280;64701;43.536;1.478;2023-05-10T05:15:02;100065.75;;;11.90;95.07
76011;BME280;64701;43.536;1.478;2023-05-10T05:17:29;100060.81;;;11.86;95.79
76011;BME280;64701;43.536;1.478;2023-05-10T05:19:55;100065.28;;;11.86;95.65
76011;BME280;64701;43.536;1.478;2023-05-10T05:22:20;100069.41;;;11.89;94.82
76011;BME280;64701;43.536;1.478;2023-05-10T05:24:52;100065.75;;;11.90;94.89
76011;BME280;64701;43.536;1.478;2023-05-10T05:27:17;100075.47;;;11.82;94.71
76011;BME280;64701;43.536;1.478;2023-05-10T05:29:42;100066.50;;;11.83;95.05
76011;BME280;64701;43.536;1.478;2023-05-10T05:32:08;100065.28;;;11.86;95.31
76011;BME280;64701;43.536;1.478;2023-05-10T05:34:33;100075.72;;;11.88;94.60
76011;BME280;64701;43.536;1.478;2023-05-10T05:36:58;100085.78;;;11.92;95.00
76011;BME280;64701;43.536;1.478;2023-05-10T05:39:24;100086.97;;;11.90;95.32
76011;BME280;64701;43.536;1.478;2023-05-10T05:41:49;100086.97;;;11.90;95.59
76011;BME280;64701;43.536;1.478;2023-05-10T05:44:14;100089.72;;;11.96;95.04
76011;BME280;64701;43.536;1.478;2023-05-10T05:46:39;100098.13;;;12.00;94.33
76011;BME280;64701;43.536;1.478;2023-05-10T05:49:05;100099.78;;;12.01;94.21
76011;BME280;64701;43.536;1.478;2023-05-10T05:51:30;100101.41;;;12.02;94.43
76011;BME280;64701;43.536;1.478;2023-05-10T05:53:56;100096.47;;;11.99;94.06
76011;BME280;64701;43.536;1.478;2023-05-10T05:56:21;100095.94;;;12.03;93.90
76011;BME280;64701;43.536;1.478;2023-05-10T05:58:52;100099.59;;;12.02;94.32
76011;BME280;64701;43.536;1.478;2023-05-10T06:01:17;100101.41;;;12.02;93.88
76011;BME280;64701;43.536;1.478;2023-05-10T06:03:42;100108.72;;;12.00;94.16
76011;BME280;64701;43.536;1.478;2023-05-10T06:06:08;100114.03;;;12.00;93.96
76011;BME280;64701;43.536;1.478;2023-05-10T06:08:33;100109.38;;;12.02;94.13
76011;BME280;64701;43.536;1.478;2023-05-10T06:10:59;100114.03;;;12.00;94.37
76011;BME280;64701;43.536;1.478;2023-05-10T06:13:24;100118.09;;;11.96;94.15
76011;BME280;64701;43.536;1.478;2023-05-10T06:15:50;100114.03;;;12.00;94.49
76011;BME280;64701;43.536;1.478;2023-05-10T06:18:16;100113.69;;;12.03;94.80
76011;BME280;64701;43.536;1.478;2023-05-10T06:20:41;100116.84;;;12.13;94.57
76011;BME280;64701;43.536;1.478;2023-05-10T06:23:07;100117.88;;;12.12;94.21
76011;BME280;64701;43.536;1.478;2023-05-10T06:25:33;100113.47;;;12.19;94.02
76011;BME280;64701;43.536;1.478;2023-05-10T06:28:00;100115.94;;;12.20;94.79
76011;BME280;64701;43.536;1.478;2023-05-10T06:30:25;100115.63;;;12.30;94.20
76011;BME280;64701;43.536;1.478;2023-05-10T06:32:53;100116.88;;;12.34;93.68
76011;BME280;64701;43.536;1.478;2023-05-10T06:35:18;100112.59;;;12.33;94.17
76011;BME280;64701;43.536;1.478;2023-05-10T06:37:43;100112.59;;;12.33;94.88
76011;BME280;64701;43.536;1.478;2023-05-10T06:40:09;100117.34;;;12.38;93.43
76011;BME280;64701;43.536;1.478;2023-05-10T06:42:34;100116.13;;;12.40;92.56
76011;BME280;64701;43.536;1.478;2023-05-10T06:45:00;100116.50;;;12.37;92.98
76011;BME280;64701;43.536;1.478;2023-05-10T06:47:25;100112.22;;;12.36;92.65
76011;BME280;64701;43.536;1.478;2023-05-10T06:49:50;100115.13;;;12.41;92.75
76011;BME280;64701;43.536;1.478;2023-05-10T06:52:16;100117.84;;;12.48;92.43
76011;BME280;64701;43.536;1.478;2023-05-10T06:54:41;100107.03;;;12.49;91.52
76011;BME280;64701;43.536;1.478;2023-05-10T06:57:06;100121.22;;;12.56;91.80
76011;BME280;64701;43.536;1.478;2023-05-10T06:59:31;100107.16;;;12.62;91.71
76011;BME280;64701;43.536;1.478;2023-05-10T07:01:57;100109.06;;;12.68;91.42
76011;BME280;64701;43.536;1.478;2023-05-10T07:04:22;100111.97;;;12.74;91.42
76011;BME280;64701;43.536;1.478;2023-05-10T07:06:47;100114.94;;;12.85;90.53
76011;BME280;64701;43.536;1.478;2023-05-10T07:09:14;100120.91;;;12.94;89.99
76011;BME280;64701;43.536;1.478;2023-05-10T07:11:39;100110.16;;;13.02;89.59
76011;BME280;64701;43.536;1.478;2023-05-10T07:14:05;100109.38;;;13.08;88.57
76011;BME280;64701;43.536;1.478;2023-05-10T07:16:30;100120.44;;;13.12;87.28
76011;BME280;64701;43.536;1.478;2023-05-10T07:18:55;100121.78;;;13.22;88.33
76011;BME280;64701;43.536;1.478;2023-05-10T07:21:20;100113.28;;;13.33;87.86
76011;BME280;64701;43.536;1.478;2023-05-10T07:23:48;100114.34;;;13.39;86.06
76011;BME280;64701;43.536;1.478;2023-05-10T07:26:14;100121.56;;;13.52;86.20
76011;BME280;64701;43.536;1.478;2023-05-10T07:28:39;100125.06;;;13.59;85.26
76011;BME280;64701;43.536;1.478;2023-05-10T07:31:05;100117.88;;;13.53;83.93
76011;BME280;64701;43.536;1.478;2023-05-10T07:33:30;100117.72;;;13.61;84.04
76011;BME280;64701;43.536;1.478;2023-05-10T07:35:56;100114.44;;;13.59;82.42
76011;BME280;64701;43.536;1.478;2023-05-10T07:38:21;100118.13;;;13.58;81.84
76011;BME280;64701;43.536;1.478;2023-05-10T07:40:46;100118.97;;;13.65;82.14
76011;BME280;64701;43.536;1.478;2023-05-10T07:43:11;100113.91;;;13.70;82.14
76011;BME280;64701;43.536;1.478;2023-05-10T07:45:37;100117.78;;;13.74;81.87
76011;BME280;64701;43.536;1.478;2023-05-10T07:48:02;100107.94;;;13.68;81.85
76011;BME280;64701;43.536;1.478;2023-05-10T07:50:27;100116.78;;;13.75;81.97
76011;BME280;64701;43.536;1.478;2023-05-10T07:52:53;100118.03;;;13.79;82.72
76011;BME280;64701;43.536;1.478;2023-05-10T07:55:18;100111.63;;;13.67;80.88
76011;BME280;64701;43.536;1.478;2023-05-10T07:57:44;100110.16;;;13.58;80.66
76011;BME280;64701;43.536;1.478;2023-05-10T08:00:12;100114.59;;;13.51;80.38
76011;BME280;64701;43.536;1.478;2023-05-10T08:02:37;100111.94;;;13.51;80.83
76011;BME280;64701;43.536;1.478;2023-05-10T08:05:02;100112.22;;;13.62;82.03
76011;BME280;64701;43.536;1.478;2023-05-10T08:07:28;100105.53;;;13.79;83.41
76011;BME280;64701;43.536;1.478;2023-05-10T08:09:53;100100.09;;;13.94;82.22
76011;BME280;64701;43.536;1.478;2023-05-10T08:12:18;100106.06;;;14.09;81.41
76011;BME280;64701;43.536;1.478;2023-05-10T08:14:44;100102.66;;;14.28;79.53
76011;BME280;64701;43.536;1.478;2023-05-10T08:17:09;100107.16;;;14.35;77.20
76011;BME280;64701;43.536;1.478;2023-05-10T08:19:34;100097.59;;;14.47;77.11
76011;BME280;64701;43.536;1.478;2023-05-10T08:21:59;100111.16;;;14.65;76.30
76011;BME280;64701;43.536;1.478;2023-05-10T08:24:25;100104.38;;;14.69;75.07
76011;BME280;64701;43.536;1.478;2023-05-10T08:26:50;100102.53;;;14.63;73.94
76011;BME280;64701;43.536;1.478;2023-05-10T08:29:15;100102.31;;;14.51;73.44
76011;BME280;64701;43.536;1.478;2023-05-10T08:31:41;100101.06;;;14.41;73.02
76011;BME280;64701;43.536;1.478;2023-05-10T08:34:06;100105.91;;;14.30;73.17
76011;BME280;64701;43.536;1.478;2023-05-10T08:36:31;100105.50;;;14.27;73.77
76011;BME280;64701;43.536;1.478;2023-05-10T08:38:57;100109.63;;;14.29;75.53
76011;BME280;64701;43.536;1.478;2023-05-10T08:41:22;100106.41;;;14.41;75.34
76011;BME280;64701;43.536;1.478;2023-05-10T08:43:52;100103.72;;;14.54;73.77
76011;BME280;64701;43.536;1.478;2023-05-10T08:46:18;100094.53;;;14.76;73.82
76011;BME280;64701;43.536;1.478;2023-05-10T08:48:44;100090.84;;;14.90;70.78
76011;BME280;64701;43.536;1.478;2023-05-10T08:51:12;100094.53;;;15.09;72.32
76011;BME280;64701;43.536;1.478;2023-05-10T08:53:38;100094.91;;;15.26;73.18
76011;BME280;64701;43.536;1.478;2023-05-10T08:56:04;100093.69;;;15.22;68.95
76011;BME280;64701;43.536;1.478;2023-05-10T08:58:29;100114.63;;;15.18;68.91
76011;BME280;64701;43.536;1.478;2023-05-10T09:00:55;100099.84;;;15.16;67.23
76011;BME280;64701;43.536;1.478;2023-05-10T09:03:22;100099.84;;;15.09;65.70
76011;BME280;64701;43.536;1.478;2023-05-10T09:05:47;100106.22;;;15.15;66.88
76011;BME280;64701;43.536;1.478;2023-05-10T09:08:13;100101.50;;;15.17;67.26
76011;BME280;64701;43.536;1.478;2023-05-10T09:10:40;100106.84;;;15.17;65.04
76011;BME280;64701;43.536;1.478;2023-05-10T09:13:07;100097.19;;;15.16;64.73
76011;BME280;64701;43.536;1.478;2023-05-10T09:15:34;100100.66;;;15.36;67.38
76011;BME280;64701;43.536;1.478;2023-05-10T09:17:59;100094.25;;;15.43;64.78
76011;BME280;64701;43.536;1.478;2023-05-10T09:20:27;100097.16;;;15.55;66.83
76011;BME280;64701;43.536;1.478;2023-05-10T09:22:52;100079.88;;;15.51;63.82
76011;BME280;64701;43.536;1.478;2023-05-10T09:25:17;100084.84;;;15.54;64.42
76011;BME280;64701;43.536;1.478;2023-05-10T09:27:46;100083.38;;;15.58;64.39
76011;BME280;64701;43.536;1.478;2023-05-10T09:30:30;100086.59;;;15.73;66.13
76011;BME280;64701;43.536;1.478;2023-05-10T09:32:56;100078.72;;;15.91;62.96
76011;BME280;64701;43.536;1.478;2023-05-10T09:35:26;100073.94;;;16.07;64.09
76011;BME280;64701;43.536;1.478;2023-05-10T09:37:54;100068.59;;;16.07;61.54
76011;BME280;64701;43.536;1.478;2023-05-10T09:40:20;100074.78;;;16.01;61.99
76011;BME280;64701;43.536;1.478;2023-05-10T09:42:53;100075.81;;;16.00;60.12
76011;BME280;64701;43.536;1.478;2023-05-10T09:45:19;100075.31;;;16.16;62.36
76011;BME280;64701;43.536;1.478;2023-05-10T09:47:45;100068.41;;;16.33;63.57
76011;BME280;64701;43.536;1.478;2023-05-10T09:50:10;100067.25;;;16.54;62.36
76011;BME280;64701;43.536;1.478;2023-05-10T09:52:57;100057.75;;;16.64;59.64
76011;BME280;64701;43.536;1.478;2023-05-10T09:55:41;100063.66;;;16.73;58.67
76011;BME280;64701;43.536;1.478;2023-05-10T09:58:06;100066.91;;;16.75;54.99
76011;BME280;64701;43.536;1.478;2023-05-10T10:00:35;100057.97;;;16.88;60.82
76011;BME280;64701;43.536;1.478;2023-05-10T10:03:01;100055.91;;;16.90;60.61
76011;BME280;64701;43.536;1.478;2023-05-10T10:05:34;100056.53;;;17.10;61.16
76011;BME280;64701;43.536;1.478;2023-05-10T10:08:04;100049.53;;;17.09;53.58
76011;BME280;64701;43.536;1.478;2023-05-10T10:10:31;100051.91;;;17.17;56.38
76011;BME280;64701;43.536;1.478;2023-05-10T10:12:56;100060.97;;;17.16;56.16
76011;BME280;64701;43.536;1.478;2023-05-10T10:15:22;100053.84;;;17.28;57.95
76011;BME280;64701;43.536;1.478;2023-05-10T10:17:48;100061.47;;;17.31;56.29
76011;BME280;64701;43.536;1.478;2023-05-10T10:20:14;100049.41;;;17.40;57.31
76011;BME280;64701;43.536;1.478;2023-05-10T10:22:40;100052.00;;;17.47;57.84
76011;BME280;64701;43.536;1.478;2023-05-10T10:25:05;100048.44;;;17.71;57.70
76011;BME280;64701;43.536;1.478;2023-05-10T10:27:36;100044.22;;;17.64;56.38
76011;BME280;64701;43.536;1.478;2023-05-10T10:35:00;100046.75;;;17.77;57.29
76011;BME280;64701;43.536;1.478;2023-05-10T10:37:40;100030.22;;;17.80;54.11
76011;BME280;64701;43.536;1.478;2023-05-10T10:40:28;100039.47;;;17.66;53.98
76011;BME280;64701;43.536;1.478;2023-05-10T10:42:52;100038.56;;;17.72;53.07
76011;BME280;64701;43.536;1.478;2023-05-10T10:45:18;100031.28;;;17.61;52.67
76011;BME280;64701;43.536;1.478;2023-05-10T10:47:44;100031.72;;;17.58;53.48
76011;BME280;64701;43.536;1.478;2023-05-10T10:50:10;100027.78;;;17.60;51.93
76011;BME280;64701;43.536;1.478;2023-05-10T10:52:41;100032.50;;;17.58;51.99
76011;BME280;64701;43.536;1.478;2023-05-10T10:57:53;100020.41;;;17.74;55.57
76011;BME280;64701;43.536;1.478;2023-05-10T11:00:20;100019.03;;;17.83;52.61
76011;BME280;64701;43.536;1.478;2023-05-10T11:02:46;100017.22;;;17.95;54.08
76011;BME280;64701;43.536;1.478;2023-05-10T11:07:58;100018.03;;;18.25;53.93
76011;BME280;64701;43.536;1.478;2023-05-10T11:10:25;100008.25;;;18.31;53.50
76011;BME280;64701;43.536;1.478;2023-05-10T11:13:00;100020.47;;;18.15;53.92
76011;BME280;64701;43.536;1.478;2023-05-10T11:15:30;100024.97;;;18.03;53.25
76011;BME280;64701;43.536;1.478;2023-05-10T11:17:55;100017.75;;;17.74;53.35
76011;BME280;64701;43.536;1.478;2023-05-10T11:20:21;100020.63;;;17.54;54.10
76011;BME280;64701;43.536;1.478;2023-05-10T11:22:50;100025.22;;;17.47;54.22
76011;BME280;64701;43.536;1.478;2023-05-10T11:25:16;100019.44;;;17.50;56.66
76011;BME280;64701;43.536;1.478;2023-05-10T11:27:41;100030.97;;;17.32;57.28
76011;BME280;64701;43.536;1.478;2023-05-10T11:30:07;100029.63;;;17.23;59.15
76011;BME280;64701;43.536;1.478;2023-05-10T11:32:35;100036.41;;;17.26;60.27
76011;BME280;64701;43.536;1.478;2023-05-10T11:35:06;100038.56;;;16.92;62.62
76011;BME280;64701;43.536;1.478;2023-05-10T11:37:31;100043.25;;;16.79;64.52
76011;BME280;64701;43.536;1.478;2023-05-10T11:39:59;100041.88;;;16.69;67.67
76011;BME280;64701;43.536;1.478;2023-05-10T11:42:24;100042.59;;;16.52;67.47
76011;BME280;64701;43.536;1.478;2023-05-10T11:44:49;100028.25;;;16.46;67.65
76011;BME280;64701;43.536;1.478;2023-05-10T11:47:15;100031.19;;;16.38;68.55
76011;BME280;64701;43.536;1.478;2023-05-10T11:49:43;100028.28;;;16.40;69.81
76011;BME280;64701;43.536;1.478;2023-05-10T11:52:08;100024.28;;;16.55;68.11
76011;BME280;64701;43.536;1.478;2023-05-10T11:54:33;100024.38;;;16.73;68.33
76011;BME280;64701;43.536;1.478;2023-05-10T11:57:00;100022.53;;;16.92;65.14
76011;BME280;64701;43.536;1.478;2023-05-10T11:59:25;100017.00;;;17.30;65.88
76011;BME280;64701;43.536;1.478;2023-05-10T12:01:50;100007.09;;;17.67;63.24
76011;BME280;64701;43.536;1.478;2023-05-10T12:04:16;100008.78;;;17.80;58.37
76011;BME280;64701;43.536;1.478;2023-05-10T12:06:41;100007.59;;;18.06;55.43
76011;BME280;64701;43.536;1.478;2023-05-10T12:09:07;99997.19;;;18.27;54.63
76011;BME280;64701;43.536;1.478;2023-05-10T12:11:35;99993.09;;;18.36;52.83
76011;BME280;64701;43.536;1.478;2023-05-10T12:14:03;99997.66;;;18.48;53.41
76011;BME280;64701;43.536;1.478;2023-05-10T12:16:29;99999.09;;;18.50;52.63
76011;BME280;64701;43.536;1.478;2023-05-10T12:18:58;99990.25;;;18.73;54.35
76011;BME280;64701;43.536;1.478;2023-05-10T12:21:24;99984.19;;;18.66;52.31
76011;BME280;64701;43.536;1.478;2023-05-10T12:23:51;99982.22;;;18.73;53.45
76011;BME280;64701;43.536;1.478;2023-05-10T12:26:16;99983.38;;;18.77;53.21
76011;BME280;64701;43.536;1.478;2023-05-10T12:28:42;99984.78;;;18.91;54.49
76011;BME280;64701;43.536;1.478;2023-05-10T12:31:07;99978.72;;;18.84;53.83
76011;BME280;64701;43.536;1.478;2023-05-10T12:33:36;99985.94;;;18.72;50.41
76011;BME280;64701;43.536;1.478;2023-05-10T12:36:04;99982.19;;;18.96;54.25
76011;BME280;64701;43.536;1.478;2023-05-10T12:38:33;99977.78;;;18.90;52.21
76011;BME280;64701;43.536;1.478;2023-05-10T12:40:59;99975.91;;;18.79;51.90
76011;BME280;64701;43.536;1.478;2023-05-10T12:43:25;99968.91;;;18.55;53.70
76011;BME280;64701;43.536;1.478;2023-05-10T12:45:50;99967.06;;;18.14;55.06
76011;BME280;64701;43.536;1.478;2023-05-10T12:48:15;99973.84;;;18.16;55.73
76011;BME280;64701;43.536;1.478;2023-05-10T12:50:41;99959.78;;;18.44;55.84
76011;BME280;64701;43.536;1.478;2023-05-10T12:53:06;99964.72;;;18.59;56.39
76011;BME280;64701;43.536;1.478;2023-05-10T12:55:31;99954.47;;;18.67;51.16
76011;BME280;64701;43.536;1.478;2023-05-10T12:57:57;99963.22;;;18.74;49.42
76011;BME280;64701;43.536;1.478;2023-05-10T13:00:22;99954.00;;;18.82;51.22
76011;BME280;64701;43.536;1.478;2023-05-10T13:02:47;99949.28;;;18.89;48.40
76011;BME280;64701;43.536;1.478;2023-05-10T13:05:13;99954.66;;;18.89;49.52
76011;BME280;64701;43.536;1.478;2023-05-10T13:07:38;99937.75;;;19.00;47.50
76011;BME280;64701;43.536;1.478;2023-05-10T13:10:04;99945.34;;;18.92;47.35
76011;BME280;64701;43.536;1.478;2023-05-10T13:12:29;99946.84;;;19.11;48.89